Terminal Aerodrome Forecast
Issued by NWS Jackson, MS

Home | Current Version | Previous Version | Text Only | Print | Product List | Glossary On
Versions: 1 2 3 4 5 6 7 8 9 10 11 12 13 14 15 16
000
FTUS44 KMEG 220500
TAFTUP
TAF
KTUP 220523Z 2206/2306 03003KT P6SM SKC
      TEMPO 2209/2213 4SM BR
     FM221500 06008KT P6SM SKC
     FM230000 04003KT P6SM SKC=

USA.gov is the U.S. government's official web portal to all federal, state and local government web resources and services.